Time;durP1;ratioP1;P1;durP2;ratioP2;P2;SDS_P1;SDS_P2;PMS_P1;PMS_P2;Temp;Humidity;BMP_temperature;BMP_pressure;BME280_temperature;BME280_humidity;BME280_pressure;Samples;Min_cycle;Max_cycle;Signal;HPM_P1;HPM_P2
2022/11/28 00:01:15;;;;;;;6.23;4.87;;;6.80;99.90;;;;;;5080167;28;20185;-49
2022/11/28 00:03:41;;;;;;;7.20;5.10;;;6.90;99.90;;;;;;5084927;28;20225;-50
2022/11/28 00:06:07;;;;;;;6.20;4.80;;;6.90;99.90;;;;;;5085829;28;20186;-48
2022/11/28 00:08:33;;;;;;;9.53;5.47;;;6.90;99.90;;;;;;5084366;28;20206;-49
2022/11/28 00:11:03;;;;;;;4.17;2.70;;;6.80;99.90;;;;;;5084308;28;20187;-49
2022/11/28 00:13:28;;;;;;;8.63;4.83;;;6.90;99.90;;;;;;5084244;28;20190;-49
2022/11/28 00:15:55;;;;;;;7.10;3.90;;;6.90;99.90;;;;;;5083879;28;20203;-48
2022/11/28 00:18:21;;;;;;;5.93;3.87;;;6.90;99.90;;;;;;5083775;28;20199;-49
2022/11/28 00:20:46;;;;;;;7.23;5.17;;;6.90;99.90;;;;;;5083420;28;20209;-48
2022/11/28 00:23:12;;;;;;;6.40;4.67;;;7.00;99.90;;;;;;5083629;28;20183;-48
2022/11/28 00:25:38;;;;;;;3.40;2.17;;;7.00;99.90;;;;;;5083545;28;20187;-50
2022/11/28 00:28:03;;;;;;;6.10;4.53;;;7.00;99.90;;;;;;5065218;28;20203;-49
2022/11/28 00:30:29;;;;;;;8.07;3.73;;;7.00;99.90;;;;;;5083749;28;20194;-50
2022/11/28 00:32:54;;;;;;;7.27;4.40;;;7.00;99.90;;;;;;5082917;28;20175;-50
2022/11/28 00:35:20;;;;;;;7.20;4.30;;;7.00;99.90;;;;;;5083064;28;20218;-50
2022/11/28 00:37:45;;;;;;;7.17;4.63;;;7.00;99.90;;;;;;5063610;28;20218;-50
2022/11/28 00:40:11;;;;;;;8.93;5.07;;;7.10;99.90;;;;;;5082429;28;20179;-49
2022/11/28 00:42:36;;;;;;;7.83;4.57;;;7.10;99.90;;;;;;5082646;28;20175;-50
2022/11/28 00:45:02;;;;;;;5.20;3.53;;;7.10;99.90;;;;;;5083447;28;20304;-49
2022/11/28 00:47:28;;;;;;;6.60;3.53;;;7.10;99.90;;;;;;5064252;28;20201;-49
2022/11/28 00:49:53;;;;;;;6.87;3.83;;;7.10;99.90;;;;;;5082517;28;20206;-48
2022/11/28 00:52:19;;;;;;;6.60;4.80;;;7.10;99.90;;;;;;5064615;28;20183;-49
2022/11/28 00:54:44;;;;;;;7.40;4.33;;;7.10;99.90;;;;;;5082095;28;20186;-50
2022/11/28 00:57:10;;;;;;;5.40;3.47;;;7.10;99.90;;;;;;5063763;28;20249;-49
2022/11/28 00:59:36;;;;;;;9.97;4.47;;;7.10;99.90;;;;;;5063690;28;20214;-50
2022/11/28 01:02:01;;;;;;;7.57;3.57;;;7.10;99.90;;;;;;5081463;28;20186;-50
2022/11/28 01:04:27;;;;;;;5.20;3.97;;;7.10;99.90;;;;;;5081007;28;20183;-50
2022/11/28 01:06:55;;;;;;;8.93;4.30;;;7.10;99.90;;;;;;5081416;28;20193;-50
2022/11/28 01:09:23;;;;;;;5.80;4.27;;;7.10;99.90;;;;;;5080837;28;20200;-50
2022/11/28 01:11:50;;;;;;;6.63;4.50;;;7.10;99.90;;;;;;5080771;28;20251;-49
2022/11/28 01:14:19;;;;;;;7.80;5.00;;;7.10;99.90;;;;;;5062494;28;20274;-50
2022/11/28 01:16:44;;;;;;;6.87;4.20;;;7.10;99.90;;;;;;5062703;28;20205;-49
2022/11/28 01:19:11;;;;;;;5.50;3.67;;;7.10;99.90;;;;;;5080339;28;20197;-50
2022/11/28 01:21:36;;;;;;;6.50;4.03;;;7.20;99.90;;;;;;5080718;28;20714;-50
2022/11/28 01:24:02;;;;;;;8.00;4.77;;;7.10;99.90;;;;;;5079494;28;20232;-50
2022/11/28 01:26:29;;;;;;;6.30;4.50;;;7.20;99.90;;;;;;5062502;28;20190;-50
2022/11/28 01:28:55;;;;;;;11.70;4.73;;;7.20;99.90;;;;;;5062353;28;20207;-50
2022/11/28 01:31:23;;;;;;;8.53;4.53;;;7.20;99.90;;;;;;5079624;28;20678;-50
2022/11/28 01:33:50;;;;;;;5.73;4.20;;;7.10;99.90;;;;;;5079202;28;20189;-50
2022/11/28 01:36:17;;;;;;;6.63;4.20;;;7.20;99.90;;;;;;5079158;28;20649;-50
2022/11/28 01:38:42;;;;;;;7.23;4.77;;;7.10;99.90;;;;;;5061002;28;20195;-49
2022/11/28 01:41:09;;;;;;;5.83;4.73;;;7.20;99.90;;;;;;5078808;28;20190;-49
2022/11/28 01:43:36;;;;;;;7.17;4.70;;;7.10;99.90;;;;;;5077944;28;20193;-49
2022/11/28 01:46:02;;;;;;;8.03;4.80;;;7.20;99.90;;;;;;5060763;28;20194;-49
2022/11/28 01:48:35;;;;;;;7.33;5.30;;;7.20;99.90;;;;;;5077948;28;20217;-49
2022/11/28 01:51:06;;;;;;;7.40;4.90;;;7.20;99.90;;;;;;5059774;28;20183;-48
2022/11/28 01:53:35;;;;;;;6.60;4.20;;;7.20;99.90;;;;;;5059631;28;20196;-50
2022/11/28 01:56:26;;;;;;;7.87;4.43;;;7.20;99.90;;;;;;5077344;28;20666;-48
2022/11/28 01:58:57;;;;;;;5.33;4.33;;;7.20;99.90;;;;;;5059834;28;20194;-49
2022/11/28 02:01:24;;;;;;;7.70;4.70;;;7.20;99.90;;;;;;5076985;28;20175;-49
2022/11/28 02:03:51;;;;;;;6.17;4.17;;;7.30;99.90;;;;;;5076575;28;20192;-50
2022/11/28 02:06:19;;;;;;;6.87;3.80;;;7.30;99.90;;;;;;5058638;28;20611;-50
2022/11/28 02:08:48;;;;;;;5.97;4.37;;;7.30;99.90;;;;;;5077483;28;20195;-50
2022/11/28 02:11:17;;;;;;;6.30;4.00;;;7.40;99.90;;;;;;5078280;28;20178;-49
2022/11/28 02:13:55;;;;;;;7.33;3.80;;;7.40;99.90;;;;;;5077451;28;20231;-50
2022/11/28 02:16:37;;;;;;;6.07;4.23;;;7.40;99.90;;;;;;5078319;28;20206;-49
2022/11/28 02:19:04;;;;;;;7.77;4.40;;;7.40;99.90;;;;;;5078607;28;20191;-47
2022/11/28 02:21:48;;;;;;;8.47;3.67;;;8.30;99.90;;;;;;5077669;28;20170;-48
2022/11/28 02:24:57;;;;;;;5.33;3.50;;;7.40;99.90;;;;;;5078018;28;20530;-49
2022/11/28 02:27:41;;;;;;;6.23;4.00;;;7.40;99.90;;;;;;5011214;28;20216;-47
2022/11/28 02:30:25;;;;;;;5.60;3.77;;;7.40;99.90;;;;;;5078306;28;20166;-48
2022/11/28 02:32:57;;;;;;;5.80;3.73;;;7.40;99.90;;;;;;5078113;28;20253;-49
2022/11/28 02:35:52;;;;;;;8.23;4.50;;;7.50;99.90;;;;;;5079141;28;20199;-48
2022/11/28 02:38:21;;;;;;;6.03;4.17;;;7.50;99.90;;;;;;5079010;28;20713;-48
2022/11/28 02:41:02;;;;;;;6.20;3.67;;;7.40;99.90;;;;;;5078567;28;20223;-47
2022/11/28 02:43:46;;;;;;;5.37;3.77;;;7.50;99.90;;;;;;5077866;28;20183;-47
2022/11/28 02:46:28;;;;;;;6.33;4.13;;;7.50;99.90;;;;;;5077698;28;20503;-47
2022/11/28 02:48:56;;;;;;;6.30;4.30;;;7.50;99.90;;;;;;5077526;28;20271;-48
2022/11/28 02:51:40;;;;;;;10.33;4.40;;;7.50;99.90;;;;;;5077879;28;20185;-49
2022/11/28 02:54:10;;;;;;;9.37;4.53;;;7.50;99.90;;;;;;5078191;28;20167;-50
2022/11/28 02:56:36;;;;;;;5.83;3.80;;;7.40;99.90;;;;;;5077471;28;20202;-48
2022/11/28 02:59:02;;;;;;;8.23;4.63;;;7.50;99.90;;;;;;5078625;28;20202;-48
2022/11/28 03:01:36;;;;;;;8.30;4.30;;;7.40;99.90;;;;;;5081229;28;20170;-48
2022/11/28 03:04:21;;;;;;;7.57;4.47;;;7.40;99.90;;;;;;5083512;28;20197;-48
2022/11/28 03:07:07;;;;;;;9.33;4.40;;;7.40;99.90;;;;;;5084305;28;20174;-47
2022/11/28 03:09:55;;;;;;;7.07;4.23;;;7.40;99.90;;;;;;5084014;28;20228;-48
2022/11/28 03:12:42;;;;;;;6.00;4.60;;;7.40;99.90;;;;;;5083218;28;20189;-48
2022/11/28 03:15:11;;;;;;;5.67;4.27;;;7.30;99.90;;;;;;5082170;28;20248;-47
2022/11/28 03:17:59;;;;;;;6.03;3.90;;;7.30;99.90;;;;;;5082291;28;20174;-50
2022/11/28 03:20:45;;;;;;;4.73;3.73;;;7.30;99.90;;;;;;5082727;28;20177;-47
2022/11/28 03:23:47;;;;;;;7.90;4.20;;;7.30;99.90;;;;;;5082238;28;20162;-49
2022/11/28 03:26:41;;;;;;;7.27;4.10;;;7.30;99.90;;;;;;5082060;28;20188;-49
2022/11/28 03:29:23;;;;;;;5.27;4.27;;;7.30;99.90;;;;;;5081837;28;20245;-48
2022/11/28 03:31:55;;;;;;;7.67;3.93;;;7.30;99.90;;;;;;5080669;28;20249;-48
2022/11/28 03:34:26;;;;;;;6.47;3.40;;;7.30;99.90;;;;;;5080325;28;20159;-50
2022/11/28 03:36:58;;;;;;;5.93;3.43;;;7.20;99.90;;;;;;5079767;28;20195;-49
2022/11/28 03:39:30;;;;;;;4.90;3.03;;;7.20;99.90;;;;;;5079820;28;20195;-48
2022/11/28 03:42:04;;;;;;;5.87;3.37;;;7.20;99.90;;;;;;5079485;28;20180;-48
2022/11/28 03:44:36;;;;;;;7.33;4.00;;;7.20;99.90;;;;;;5061652;28;20541;-48
2022/11/28 03:47:04;;;;;;;6.53;3.87;;;7.20;99.90;;;;;;5079792;28;20258;-48
2022/11/28 03:49:39;;;;;;;6.50;3.53;;;7.20;99.90;;;;;;5062303;28;20209;-49
2022/11/28 03:52:10;;;;;;;4.37;3.13;;;7.20;99.90;;;;;;5080582;28;20217;-49
2022/11/28 03:54:50;;;;;;;5.30;3.37;;;7.20;99.90;;;;;;5080181;28;20218;-48
2022/11/28 03:57:32;;;;;;;4.97;3.73;;;7.20;99.90;;;;;;5080062;28;20221;-49
2022/11/28 04:00:01;;;;;;;4.83;3.40;;;7.20;99.90;;;;;;5079255;28;20202;-50
2022/11/28 04:02:38;;;;;;;4.93;3.33;;;7.20;99.90;;;;;;5061497;28;20605;-51
2022/11/28 04:05:10;;;;;;;4.73;3.60;;;7.20;99.90;;;;;;5078889;28;20195;-50
2022/11/28 04:08:26;;;;;;;5.40;3.60;;;7.20;99.90;;;;;;5060499;28;20183;-49
2022/11/28 04:11:16;;;;;;;10.33;3.60;;;7.20;99.90;;;;;;5043957;28;20247;-49
2022/11/28 04:13:55;;;;;;;4.13;3.27;;;7.20;99.90;;;;;;5077411;28;20180;-48
2022/11/28 04:16:46;;;;;;;5.43;3.63;;;7.20;99.90;;;;;;5078330;28;20222;-50
2022/11/28 04:19:21;;;;;;;6.80;3.83;;;7.20;99.90;;;;;;5078579;28;20206;-48
2022/11/28 04:21:55;;;;;;;4.10;3.40;;;7.20;99.90;;;;;;5077733;28;20698;-49
2022/11/28 04:24:26;;;;;;;6.43;3.63;;;7.20;99.90;;;;;;5078307;28;20527;-49
2022/11/28 04:27:03;;;;;;;5.10;3.30;;;7.20;99.90;;;;;;5076754;28;20171;-50
2022/11/28 04:29:37;;;;;;;6.37;3.60;;;7.20;99.90;;;;;;5077177;28;20244;-49
2022/11/28 04:32:04;;;;;;;7.03;4.10;;;7.20;99.90;;;;;;5080229;28;20171;-50
2022/11/28 04:34:33;;;;;;;7.63;3.53;;;7.10;99.90;;;;;;5080135;28;20183;-48
2022/11/28 04:37:00;;;;;;;5.53;3.90;;;7.20;99.90;;;;;;5080340;28;20205;-50
2022/11/28 04:39:29;;;;;;;4.13;3.13;;;7.20;99.90;;;;;;5079890;28;20191;-49
2022/11/28 04:42:13;;;;;;;4.80;3.47;;;7.10;99.90;;;;;;5079720;28;20171;-48
2022/11/28 04:44:53;;;;;;;5.80;3.37;;;7.10;99.90;;;;;;5080090;28;20202;-49
2022/11/28 04:47:19;;;;;;;4.83;3.33;;;7.10;99.90;;;;;;5079966;28;20163;-47
2022/11/28 04:49:44;;;;;;;5.57;3.37;;;7.10;99.90;;;;;;5079262;28;20204;-47
2022/11/28 04:52:36;;;;;;;4.93;3.33;;;7.20;99.90;;;;;;5078833;28;20193;-47
2022/11/28 04:55:21;;;;;;;3.30;2.80;;;7.10;99.90;;;;;;5078883;28;20254;-48
2022/11/28 04:57:55;;;;;;;5.00;3.27;;;7.10;99.90;;;;;;5078205;28;20257;-48
2022/11/28 05:00:21;;;;;;;5.63;3.30;;;7.10;99.90;;;;;;5077926;28;20164;-49
2022/11/28 05:02:51;;;;;;;5.03;3.17;;;7.10;99.90;;;;;;5077926;28;20226;-49
2022/11/28 05:05:20;;;;;;;7.13;3.30;;;7.10;99.90;;;;;;5059442;28;20182;-50
2022/11/28 05:07:46;;;;;;;5.27;3.30;;;7.10;99.90;;;;;;5077551;28;20224;-49
2022/11/28 05:10:13;;;;;;;4.63;3.63;;;7.10;99.90;;;;;;5077708;28;20175;-49
2022/11/28 05:12:39;;;;;;;5.20;3.20;;;7.10;99.90;;;;;;5077565;28;20171;-49
2022/11/28 05:15:06;;;;;;;4.67;3.13;;;7.10;99.90;;;;;;5077738;28;20186;-48
2022/11/28 05:17:32;;;;;;;6.13;3.70;;;7.10;99.90;;;;;;5077488;28;20206;-49
2022/11/28 05:19:57;;;;;;;7.27;3.07;;;7.10;99.90;;;;;;5077783;28;20222;-49
2022/11/28 05:22:23;;;;;;;4.40;3.67;;;7.10;99.90;;;;;;5078047;28;20182;-49
2022/11/28 05:24:48;;;;;;;7.67;4.70;;;7.10;99.90;;;;;;5077663;28;20205;-49
2022/11/28 05:27:14;;;;;;;9.00;4.07;;;7.00;99.90;;;;;;5078181;28;20491;-49
2022/11/28 05:29:42;;;;;;;9.37;4.13;;;7.00;99.90;;;;;;5078633;28;20206;-49
2022/11/28 05:32:08;;;;;;;5.97;4.10;;;7.10;99.90;;;;;;5079243;28;20187;-49
2022/11/28 05:34:35;;;;;;;4.93;3.90;;;7.00;99.90;;;;;;5061993;28;20276;-50
2022/11/28 05:37:00;;;;;;;5.33;4.30;;;7.00;99.90;;;;;;5079336;28;20211;-49
2022/11/28 05:39:26;;;;;;;5.27;4.30;;;7.00;99.90;;;;;;5079116;28;20561;-49
2022/11/28 05:41:54;;;;;;;10.77;4.33;;;7.00;99.90;;;;;;5079230;28;20185;-48
2022/11/28 05:44:19;;;;;;;7.37;4.67;;;7.00;99.90;;;;;;5079329;28;20654;-49
2022/11/28 05:46:45;;;;;;;7.13;4.63;;;7.00;99.90;;;;;;5079038;28;20202;-50
2022/11/28 05:49:10;;;;;;;5.93;4.50;;;7.00;99.90;;;;;;5078676;28;20238;-50
2022/11/28 05:51:36;;;;;;;6.77;4.93;;;7.00;99.90;;;;;;5078692;28;20202;-50
2022/11/28 05:54:02;;;;;;;4.97;4.17;;;6.90;99.90;;;;;;5078919;28;20190;-49
2022/11/28 05:56:27;;;;;;;6.13;4.23;;;7.00;99.90;;;;;;5078857;28;20206;-49
2022/11/28 05:58:53;;;;;;;7.37;4.27;;;6.90;99.90;;;;;;5078715;28;20214;-50
2022/11/28 06:01:25;;;;;;;7.67;4.50;;;6.90;99.90;;;;;;5078347;28;20233;-49
2022/11/28 06:03:57;;;;;;;7.30;4.47;;;6.90;99.90;;;;;;5078167;28;20312;-49
2022/11/28 06:06:23;;;;;;;8.67;4.90;;;6.90;99.90;;;;;;5078971;28;20178;-49
2022/11/28 06:08:51;;;;;;;6.80;4.77;;;6.90;99.90;;;;;;5078170;28;20302;-50
2022/11/28 06:11:17;;;;;;;6.03;4.17;;;6.90;99.90;;;;;;5077729;28;20215;-49
2022/11/28 06:13:44;;;;;;;5.60;3.80;;;6.90;99.90;;;;;;5078012;28;20535;-49
2022/11/28 06:16:12;;;;;;;7.73;4.30;;;6.90;99.90;;;;;;5078054;28;20202;-48
2022/11/28 06:18:39;;;;;;;5.93;4.50;;;6.90;99.90;;;;;;5077766;28;20236;-49
2022/11/28 06:21:06;;;;;;;6.90;4.77;;;6.90;99.90;;;;;;5078090;28;20259;-49
2022/11/28 06:23:32;;;;;;;9.37;5.10;;;6.90;99.90;;;;;;5080560;28;20246;-50
2022/11/28 06:26:07;;;;;;;9.70;4.93;;;6.90;99.90;;;;;;5081418;28;20197;-50
2022/11/28 06:28:33;;;;;;;8.27;4.70;;;6.90;99.90;;;;;;5076795;28;20206;-49
2022/11/28 06:30:59;;;;;;;6.50;4.53;;;6.90;99.90;;;;;;5077236;28;20197;-50
2022/11/28 06:33:24;;;;;;;7.90;4.20;;;6.90;99.90;;;;;;5076484;28;20190;-50
2022/11/28 06:35:57;;;;;;;8.20;5.20;;;6.90;99.90;;;;;;5078646;28;20202;-50
2022/11/28 06:38:22;;;;;;;9.23;5.67;;;6.90;99.90;;;;;;5080264;28;20256;-50
2022/11/28 06:40:48;;;;;;;9.97;4.80;;;6.90;99.90;;;;;;5079688;28;20579;-51
2022/11/28 06:43:13;;;;;;;8.37;5.20;;;6.90;99.90;;;;;;5079459;28;20210;-50
2022/11/28 06:45:39;;;;;;;9.93;4.83;;;6.90;99.90;;;;;;5079433;28;20244;-50
2022/11/28 06:48:05;;;;;;;7.27;4.10;;;6.90;99.90;;;;;;5061166;28;20570;-47
2022/11/28 06:50:31;;;;;;;9.80;4.77;;;6.90;99.90;;;;;;5076672;28;20187;-44
2022/11/28 06:52:57;;;;;;;7.53;4.47;;;6.90;99.90;;;;;;5076378;28;20186;-44
2022/11/28 06:55:22;;;;;;;5.60;4.50;;;6.90;99.90;;;;;;5058071;28;20654;-43
2022/11/28 06:57:48;;;;;;;9.73;5.10;;;6.90;99.90;;;;;;5076313;28;20193;-43
2022/11/28 07:00:14;;;;;;;7.70;4.67;;;6.90;99.90;;;;;;5075990;28;20588;-44
2022/11/28 07:02:39;;;;;;;9.53;5.37;;;6.90;99.90;;;;;;5076054;28;20183;-45
2022/11/28 07:05:05;;;;;;;9.63;5.50;;;6.90;99.90;;;;;;5075881;28;20193;-44
2022/11/28 07:07:31;;;;;;;11.33;4.80;;;6.90;99.90;;;;;;5075947;28;20583;-45
2022/11/28 07:09:56;;;;;;;5.00;4.23;;;6.90;99.90;;;;;;5075817;28;20260;-43
2022/11/28 07:12:22;;;;;;;6.27;4.70;;;6.90;99.90;;;;;;5075921;28;20744;-45
2022/11/28 07:14:48;;;;;;;6.20;5.10;;;6.90;99.90;;;;;;5075785;28;20188;-43
2022/11/28 07:17:13;;;;;;;10.83;5.23;;;6.90;99.90;;;;;;5075602;28;20263;-43
2022/11/28 07:19:39;;;;;;;8.43;5.07;;;6.90;99.90;;;;;;5075747;28;20203;-43
2022/11/28 07:22:04;;;;;;;7.67;5.13;;;6.90;99.90;;;;;;5075632;28;20182;-45
2022/11/28 07:24:30;;;;;;;6.87;5.03;;;6.90;99.90;;;;;;5075906;28;20186;-46
2022/11/28 07:26:56;;;;;;;5.17;4.67;;;6.90;99.90;;;;;;5075583;28;20182;-45
2022/11/28 07:29:23;;;;;;;8.70;4.67;;;6.90;99.90;;;;;;5075477;28;20290;-44
2022/11/28 07:31:49;;;;;;;7.03;5.07;;;7.00;99.90;;;;;;5075750;28;20186;-45
2022/11/28 07:34:15;;;;;;;9.07;5.23;;;7.00;99.90;;;;;;5075471;28;20194;-45
2022/11/28 07:36:40;;;;;;;10.10;5.30;;;7.00;99.90;;;;;;5075492;28;20559;-43
2022/11/28 07:39:07;;;;;;;8.27;5.50;;;7.00;99.90;;;;;;5075507;28;20249;-45
2022/11/28 07:41:33;;;;;;;7.50;5.30;;;7.00;99.90;;;;;;5075547;28;20183;-45
2022/11/28 07:44:01;;;;;;;7.77;5.47;;;7.00;99.90;;;;;;5075270;28;20228;-43
2022/11/28 07:46:28;;;;;;;8.03;5.13;;;7.00;99.90;;;;;;5075496;28;20226;-45
2022/11/28 07:48:54;;;;;;;8.90;5.57;;;7.00;99.90;;;;;;5074920;28;20206;-45
2022/11/28 07:51:22;;;;;;;6.40;5.37;;;7.00;99.90;;;;;;5075191;28;20192;-46
2022/11/28 07:53:48;;;;;;;8.23;5.53;;;7.00;99.90;;;;;;5075292;28;20224;-45
2022/11/28 07:56:17;;;;;;;10.43;5.90;;;7.00;99.90;;;;;;5075197;28;20211;-43
2022/11/28 07:58:44;;;;;;;9.80;5.70;;;7.00;99.90;;;;;;5074753;28;20203;-45
2022/11/28 08:01:11;;;;;;;8.53;5.60;;;7.00;99.90;;;;;;5074895;28;20186;-45
2022/11/28 08:03:37;;;;;;;9.50;6.00;;;7.10;99.90;;;;;;5074755;28;20197;-46
2022/11/28 08:06:04;;;;;;;8.87;5.73;;;7.10;99.90;;;;;;5075221;28;20706;-45
2022/11/28 08:08:29;;;;;;;9.40;5.70;;;7.10;99.90;;;;;;5075003;28;20242;-45
2022/11/28 08:11:00;;;;;;;8.90;5.47;;;7.10;99.90;;;;;;5074733;28;20214;-45
2022/11/28 08:13:26;;;;;;;10.90;6.03;;;7.10;99.90;;;;;;5074675;28;20664;-45
2022/11/28 08:15:52;;;;;;;8.03;5.67;;;7.10;99.90;;;;;;5074567;28;20209;-45
2022/11/28 08:18:18;;;;;;;8.60;5.80;;;7.10;99.90;;;;;;5074627;28;20282;-45
2022/11/28 08:20:43;;;;;;;9.17;6.70;;;7.10;99.90;;;;;;5074870;28;20183;-46
2022/11/28 08:23:09;;;;;;;10.83;6.97;;;7.20;99.90;;;;;;5074750;28;20235;-46
2022/11/28 08:25:34;;;;;;;11.77;8.40;;;7.20;99.90;;;;;;5074739;28;20188;-46
2022/11/28 08:28:00;;;;;;;15.60;8.93;;;7.20;99.90;;;;;;5074307;28;20209;-46
2022/11/28 08:30:26;;;;;;;13.80;9.37;;;7.20;99.90;;;;;;5074651;28;20189;-47
2022/11/28 08:32:52;;;;;;;10.47;7.00;;;7.20;99.90;;;;;;5074883;28;20175;-45
2022/11/28 08:35:18;;;;;;;9.23;6.70;;;7.20;99.90;;;;;;5074212;28;20186;-45
2022/11/28 08:37:43;;;;;;;9.87;7.13;;;7.20;99.90;;;;;;5074254;28;20187;-45
2022/11/28 08:40:09;;;;;;;10.33;6.23;;;7.10;99.90;;;;;;5074142;28;20179;-46
2022/11/28 08:42:35;;;;;;;10.10;6.80;;;7.20;99.90;;;;;;5074388;28;20582;-46
2022/11/28 08:45:00;;;;;;;8.93;6.43;;;7.20;99.90;;;;;;5074038;28;20184;-45
2022/11/28 08:47:26;;;;;;;12.97;6.60;;;7.20;99.90;;;;;;5074559;28;20187;-46
2022/11/28 08:49:51;;;;;;;15.83;7.10;;;7.20;99.90;;;;;;5074729;28;20707;-45
2022/11/28 08:52:17;;;;;;;8.40;6.50;;;7.30;99.90;;;;;;5073912;28;20222;-45
2022/11/28 08:54:43;;;;;;;13.60;6.57;;;7.30;99.90;;;;;;5073959;28;20186;-45
2022/11/28 08:57:08;;;;;;;11.03;6.90;;;7.30;99.90;;;;;;5074036;28;20662;-45
2022/11/28 08:59:34;;;;;;;14.13;6.73;;;7.30;99.90;;;;;;5072852;28;20277;-45
2022/11/28 09:02:00;;;;;;;8.73;6.57;;;7.30;99.90;;;;;;5073769;28;20681;-46
2022/11/28 09:04:26;;;;;;;11.07;7.10;;;7.30;99.90;;;;;;5073639;28;20281;-46
2022/11/28 09:06:51;;;;;;;11.90;7.13;;;7.40;99.90;;;;;;5074029;28;20180;-45
2022/11/28 09:09:17;;;;;;;12.40;6.93;;;7.40;99.90;;;;;;5073864;28;20215;-46
2022/11/28 09:11:43;;;;;;;12.87;7.13;;;7.40;99.90;;;;;;5073796;28;20235;-46
2022/11/28 09:14:09;;;;;;;14.90;7.20;;;7.40;99.90;;;;;;5073575;28;20185;-44
2022/11/28 09:16:38;;;;;;;12.40;7.10;;;7.40;99.90;;;;;;5073473;28;20281;-44
2022/11/28 09:19:04;;;;;;;11.67;7.27;;;7.50;99.90;;;;;;5073348;28;20199;-44
2022/11/28 09:21:29;;;;;;;12.27;7.13;;;7.40;99.90;;;;;;5073408;28;20195;-45
2022/11/28 09:23:55;;;;;;;10.67;7.00;;;7.50;99.90;;;;;;5073398;28;20182;-45
2022/11/28 09:26:23;;;;;;;12.47;7.80;;;7.50;99.90;;;;;;5073573;28;20265;-45
2022/11/28 09:28:50;;;;;;;9.57;6.87;;;7.50;99.90;;;;;;5073198;28;20194;-44
2022/11/28 09:31:17;;;;;;;11.17;7.30;;;7.60;99.90;;;;;;5073213;28;20191;-45
2022/11/28 09:33:43;;;;;;;11.83;7.77;;;7.60;99.90;;;;;;5073082;28;20179;-44
2022/11/28 09:36:10;;;;;;;14.77;7.50;;;7.60;99.90;;;;;;5073425;28;20199;-43
2022/11/28 09:38:37;;;;;;;10.50;7.27;;;7.60;99.90;;;;;;5073068;28;20725;-45
2022/11/28 09:41:03;;;;;;;12.33;7.17;;;7.60;99.90;;;;;;5073150;28;20167;-45
2022/11/28 09:43:42;;;;;;;10.00;6.77;;;7.70;99.90;;;;;;5073478;28;20176;-45
2022/11/28 09:46:14;;;;;;;10.70;7.00;;;7.70;99.90;;;;;;5073391;28;20654;-44
2022/11/28 09:48:49;;;;;;;10.83;7.33;;;7.80;99.90;;;;;;5073390;28;20306;-44
2022/11/28 09:51:47;;;;;;;10.33;6.87;;;7.80;99.90;;;;;;5073107;28;20282;-45
2022/11/28 09:54:36;;;;;;;11.63;6.23;;;7.90;99.90;;;;;;5045380;28;20209;-47
2022/11/28 09:57:10;;;;;;;12.43;5.77;;;7.90;99.90;;;;;;5073411;28;20191;-43
2022/11/28 09:59:36;;;;;;;7.67;5.47;;;8.00;99.90;;;;;;5073002;28;20275;-45
2022/11/28 10:02:19;;;;;;;6.63;4.80;;;7.90;99.90;;;;;;5073245;28;20186;-45
2022/11/28 10:05:09;;;;;;;6.03;4.50;;;8.00;99.90;;;;;;5073097;28;20187;-45
2022/11/28 10:08:01;;;;;;;7.17;3.87;;;8.00;99.90;;;;;;5073157;28;20159;-44
2022/11/28 10:10:51;;;;;;;6.43;3.77;;;8.10;99.90;;;;;;5074142;28;20160;-45
2022/11/28 10:13:36;;;;;;;5.20;3.20;;;8.10;99.90;;;;;;5077153;28;20166;-43
2022/11/28 10:16:27;;;;;;;5.13;3.27;;;8.20;99.90;;;;;;5076917;28;20218;-45
2022/11/28 10:19:01;;;;;;;4.37;3.33;;;8.20;99.90;;;;;;5077084;28;20190;-44
2022/11/28 10:21:41;;;;;;;5.77;3.27;;;8.20;99.90;;;;;;5077166;28;20156;-46
2022/11/28 10:24:17;;;;;;;4.67;3.10;;;8.30;99.90;;;;;;5077131;28;20233;-45
2022/11/28 10:26:47;;;;;;;5.33;2.87;;;8.30;99.90;;;;;;5076785;28;20235;-44
2022/11/28 10:29:24;;;;;;;6.40;2.93;;;8.30;99.90;;;;;;5076620;28;20750;-44
2022/11/28 10:31:57;;;;;;;3.27;2.47;;;8.30;99.90;;;;;;5076789;28;20217;-43
2022/11/28 10:34:44;;;;;;;4.97;2.77;;;8.40;99.90;;;;;;5076626;28;20178;-46
2022/11/28 10:37:20;;;;;;;3.57;2.57;;;8.40;99.90;;;;;;5076870;28;20248;-45
2022/11/28 10:39:47;;;;;;;4.27;2.90;;;8.40;99.90;;;;;;5077043;28;20286;-46
2022/11/28 10:42:23;;;;;;;4.37;2.70;;;8.40;99.90;;;;;;5077054;28;20180;-44
2022/11/28 10:45:23;;;;;;;6.03;2.80;;;8.40;99.90;;;;;;5077275;28;20164;-46
2022/11/28 10:48:06;;;;;;;5.03;2.80;;;8.40;99.90;;;;;;5077304;28;20638;-46
2022/11/28 10:50:56;;;;;;;3.70;2.80;;;8.50;99.90;;;;;;5077183;28;20164;-45
2022/11/28 10:53:54;;;;;;;4.33;2.77;;;8.50;99.90;;;;;;5076507;28;20242;-46
2022/11/28 10:56:48;;;;;;;3.13;2.73;;;8.50;99.90;;;;;;5076142;28;20321;-44
2022/11/28 10:59:39;;;;;;;3.87;2.87;;;8.50;99.90;;;;;;5076390;28;20241;-45
2022/11/28 11:02:20;;;;;;;4.47;2.90;;;8.50;99.90;;;;;;5076145;28;20190;-45
2022/11/28 11:04:46;;;;;;;3.23;2.93;;;8.50;99.90;;;;;;5077497;28;20191;-45
2022/11/28 11:07:26;;;;;;;4.50;3.00;;;8.50;99.90;;;;;;5076133;28;20548;-46
2022/11/28 11:09:51;;;;;;;4.23;2.83;;;8.60;99.90;;;;;;5075968;28;20194;-46
2022/11/28 11:12:28;;;;;;;3.57;2.63;;;8.60;99.90;;;;;;5075899;28;20180;-46
2022/11/28 11:14:54;;;;;;;6.90;2.80;;;8.60;99.90;;;;;;5076142;28;20221;-46
2022/11/28 11:17:38;;;;;;;3.10;2.67;;;8.60;99.90;;;;;;5075789;28;20685;-45
2022/11/28 11:20:22;;;;;;;4.43;3.30;;;8.60;99.90;;;;;;5075670;28;20667;-45
2022/11/28 11:22:55;;;;;;;4.17;3.30;;;8.70;99.90;;;;;;5074566;28;20580;-46
2022/11/28 11:25:23;;;;;;;4.20;3.77;;;8.70;99.90;;;;;;5075787;28;20250;-45
2022/11/28 11:27:51;;;;;;;5.13;3.93;;;8.70;99.90;;;;;;5075816;28;20209;-45
2022/11/28 11:30:34;;;;;;;5.43;3.97;;;8.70;99.90;;;;;;5075500;28;20180;-45
2022/11/28 11:33:02;;;;;;;5.37;4.43;;;8.70;99.90;;;;;;5075890;28;20235;-44
2022/11/28 11:35:32;;;;;;;4.43;4.03;;;8.80;99.90;;;;;;5075216;28;20258;-46
2022/11/28 11:38:15;;;;;;;9.87;4.40;;;8.80;99.90;;;;;;5076197;28;20209;-45
2022/11/28 11:40:41;;;;;;;7.07;4.27;;;8.80;99.90;;;;;;5075943;28;20221;-45
2022/11/28 11:43:26;;;;;;;4.03;3.60;;;8.80;99.90;;;;;;5075317;28;20172;-45
2022/11/28 11:46:11;;;;;;;4.10;3.27;;;8.80;99.90;;;;;;5057394;28;20171;-44
2022/11/28 11:48:49;;;;;;;4.50;3.37;;;8.80;99.90;;;;;;5075118;28;20227;-45
2022/11/28 11:51:20;;;;;;;4.40;2.90;;;8.80;99.90;;;;;;5075116;28;20180;-45
2022/11/28 11:53:46;;;;;;;3.13;2.83;;;8.80;99.90;;;;;;5075405;28;20719;-45
2022/11/28 11:56:12;;;;;;;5.17;2.77;;;8.80;99.90;;;;;;5075249;28;20279;-45
2022/11/28 11:58:48;;;;;;;3.63;3.23;;;8.80;99.90;;;;;;5074956;28;20286;-46
2022/11/28 12:01:17;;;;;;;2.90;2.60;;;8.90;99.90;;;;;;5074953;28;20175;-44
2022/11/28 12:04:05;;;;;;;3.67;2.83;;;8.80;99.90;;;;;;5074928;28;20218;-45
2022/11/28 12:06:41;;;;;;;4.93;2.93;;;8.90;99.90;;;;;;5075138;28;20175;-46
2022/11/28 12:09:20;;;;;;;3.10;2.80;;;8.90;99.90;;;;;;5074743;28;20199;-43
2022/11/28 12:11:54;;;;;;;4.00;3.10;;;8.90;99.90;;;;;;5074969;28;20168;-44
2022/11/28 12:14:37;;;;;;;5.27;3.57;;;8.90;99.90;;;;;;5074821;28;20518;-46
2022/11/28 12:17:39;;;;;;;6.13;3.00;;;8.90;99.90;;;;;;5074537;28;20195;-45
2022/11/28 12:20:23;;;;;;;4.10;3.13;;;8.90;99.90;;;;;;5074772;28;20206;-44
2022/11/28 12:22:59;;;;;;;5.13;3.30;;;8.90;99.90;;;;;;5074452;28;20236;-43
2022/11/28 12:25:35;;;;;;;7.60;3.13;;;8.90;99.90;;;;;;5074967;28;20167;-44
2022/11/28 12:28:17;;;;;;;7.73;4.23;;;8.90;99.90;;;;;;5074665;28;20178;-45
2022/11/28 12:30:57;;;;;;;12.47;3.77;;;9.00;99.90;;;;;;5074368;28;20202;-45
2022/11/28 12:33:59;;;;;;;5.47;3.83;;;9.00;99.90;;;;;;5074459;28;20171;-45
2022/11/28 12:36:27;;;;;;;5.47;3.97;;;9.00;99.90;;;;;;5074303;28;20669;-45
2022/11/28 12:39:20;;;;;;;8.00;4.17;;;9.00;99.90;;;;;;5074091;28;20192;-45
2022/11/28 12:42:08;;;;;;;7.03;4.03;;;9.00;99.90;;;;;;5073985;28;20271;-45
2022/11/28 12:44:33;;;;;;;4.97;3.53;;;9.00;99.90;;;;;;5074000;28;20632;-45
2022/11/28 12:47:10;;;;;;;5.50;4.00;;;9.00;99.90;;;;;;5074376;28;20187;-47
2022/11/28 12:49:36;;;;;;;5.90;3.97;;;9.10;99.90;;;;;;5073944;28;20695;-47
2022/11/28 12:52:19;;;;;;;6.30;3.97;;;9.00;99.90;;;;;;5073903;28;20176;-45
2022/11/28 12:55:03;;;;;;;5.23;4.27;;;9.00;99.90;;;;;;5074064;28;20171;-46
2022/11/28 12:58:09;;;;;;;6.83;4.00;;;9.10;99.90;;;;;;5074018;28;20249;-46
2022/11/28 13:01:10;;;;;;;6.33;4.10;;;9.00;99.90;;;;;;5073865;28;20238;-45
2022/11/28 13:04:10;;;;;;;6.00;4.23;;;9.00;99.90;;;;;;5003390;28;20950;-45
2022/11/28 13:06:47;;;;;;;6.13;4.33;;;9.00;99.90;;;;;;5073935;28;20164;-45
2022/11/28 13:09:24;;;;;;;8.60;4.30;;;9.00;99.90;;;;;;5073866;28;20229;-45
2022/11/28 13:12:29;;;;;;;5.27;4.53;;;9.10;99.90;;;;;;5073575;28;20164;-46
2022/11/28 13:14:57;;;;;;;9.13;6.17;;;9.10;99.90;;;;;;4992937;28;20336;-46
2022/11/28 13:17:52;;;;;;;10.60;6.20;;;9.10;99.90;;;;;;5057678;28;20275;-45
2022/11/28 13:20:41;;;;;;;12.73;7.13;;;9.10;99.90;;;;;;5074360;28;20168;-46
2022/11/28 13:23:18;;;;;;;20.67;7.73;;;9.10;99.90;;;;;;5074952;28;20166;-46